sensor_id;sensor_type;location;lat;lon;timestamp;temperature;humidity
12568;DHT22;6349;50.904;6.136;2022-08-03T00:01:45;23.00;99.90
12568;DHT22;6349;50.904;6.136;2022-08-03T00:03:45;23.00;99.90
12568;DHT22;6349;50.904;6.136;2022-08-03T00:05:46;23.00;99.90
12568;DHT22;6349;50.904;6.136;2022-08-03T00:07:47;22.90;99.90
12568;DHT22;6349;50.904;6.136;2022-08-03T00:09:47;22.90;99.90
12568;DHT22;6349;50.904;6.136;2022-08-03T00:11:48;22.90;99.90
12568;DHT22;6349;50.904;6.136;2022-08-03T00:13:49;22.90;99.90
12568;DHT22;6349;50.904;6.136;2022-08-03T00:15:50;22.90;99.90
12568;DHT22;6349;50.904;6.136;2022-08-03T00:17:51;22.90;99.90
12568;DHT22;6349;50.904;6.136;2022-08-03T00:19:52;22.90;99.90
12568;DHT22;6349;50.904;6.136;2022-08-03T00:21:52;23.00;99.90
12568;DHT22;6349;50.904;6.136;2022-08-03T00:23:53;23.00;99.90
12568;DHT22;6349;50.904;6.136;2022-08-03T00:25:54;23.00;99.90
12568;DHT22;6349;50.904;6.136;2022-08-03T00:27:54;22.90;99.90
12568;DHT22;6349;50.904;6.136;2022-08-03T00:29:55;22.90;99.90
12568;DHT22;6349;50.904;6.136;2022-08-03T00:31:56;22.80;99.90
12568;DHT22;6349;50.904;6.136;2022-08-03T00:33:56;22.80;99.90
12568;DHT22;6349;50.904;6.136;2022-08-03T00:35:57;22.80;99.90
12568;DHT22;6349;50.904;6.136;2022-08-03T00:37:57;22.80;99.90
12568;DHT22;6349;50.904;6.136;2022-08-03T00:39:58;22.70;99.90
12568;DHT22;6349;50.904;6.136;2022-08-03T00:42:03;22.70;99.90
12568;DHT22;6349;50.904;6.136;2022-08-03T00:44:04;22.70;99.90
12568;DHT22;6349;50.904;6.136;2022-08-03T00:46:04;22.70;99.90
12568;DHT22;6349;50.904;6.136;2022-08-03T00:48:06;22.70;99.90
12568;DHT22;6349;50.904;6.136;2022-08-03T00:50:07;22.70;99.90
12568;DHT22;6349;50.904;6.136;2022-08-03T00:52:09;22.70;99.90
12568;DHT22;6349;50.904;6.136;2022-08-03T00:54:10;22.70;99.90
12568;DHT22;6349;50.904;6.136;2022-08-03T00:56:13;22.70;99.90
12568;DHT22;6349;50.904;6.136;2022-08-03T00:58:14;22.70;99.90
12568;DHT22;6349;50.904;6.136;2022-08-03T01:00:19;22.70;99.90
12568;DHT22;6349;50.904;6.136;2022-08-03T01:02:19;22.70;99.90
12568;DHT22;6349;50.904;6.136;2022-08-03T01:04:20;22.70;99.90
12568;DHT22;6349;50.904;6.136;2022-08-03T01:06:46;22.70;99.90
12568;DHT22;6349;50.904;6.136;2022-08-03T01:09:02;22.70;99.90
12568;DHT22;6349;50.904;6.136;2022-08-03T01:17:55;22.30;99.90
12568;DHT22;6349;50.904;6.136;2022-08-03T01:20:01;22.30;99.90
12568;DHT22;6349;50.904;6.136;2022-08-03T01:31:07;22.00;99.90
12568;DHT22;6349;50.904;6.136;2022-08-03T01:33:19;22.00;99.90
12568;DHT22;6349;50.904;6.136;2022-08-03T01:35:45;22.00;99.90
12568;DHT22;6349;50.904;6.136;2022-08-03T01:37:53;22.20;99.90
12568;DHT22;6349;50.904;6.136;2022-08-03T01:39:57;22.30;99.90
12568;DHT22;6349;50.904;6.136;2022-08-03T01:42:01;22.30;99.90
12568;DHT22;6349;50.904;6.136;2022-08-03T01:44:08;22.10;99.90
12568;DHT22;6349;50.904;6.136;2022-08-03T01:46:10;22.20;99.90
12568;DHT22;6349;50.904;6.136;2022-08-03T01:48:15;22.20;99.90
12568;DHT22;6349;50.904;6.136;2022-08-03T01:50:21;22.20;99.90
12568;DHT22;6349;50.904;6.136;2022-08-03T01:52:23;22.20;99.90
12568;DHT22;6349;50.904;6.136;2022-08-03T01:54:25;22.00;99.90
12568;DHT22;6349;50.904;6.136;2022-08-03T01:56:27;22.00;99.90
12568;DHT22;6349;50.904;6.136;2022-08-03T01:58:30;21.80;99.90
12568;DHT22;6349;50.904;6.136;2022-08-03T02:00:32;21.70;99.90
12568;DHT22;6349;50.904;6.136;2022-08-03T02:02:36;21.70;99.90
12568;DHT22;6349;50.904;6.136;2022-08-03T02:04:37;21.70;99.90
12568;DHT22;6349;50.904;6.136;2022-08-03T02:06:39;21.70;99.90
12568;DHT22;6349;50.904;6.136;2022-08-03T02:08:41;21.70;99.90
12568;DHT22;6349;50.904;6.136;2022-08-03T02:10:43;21.60;99.90
12568;DHT22;6349;50.904;6.136;2022-08-03T02:12:46;21.60;99.90
12568;DHT22;6349;50.904;6.136;2022-08-03T02:14:48;21.60;99.90
12568;DHT22;6349;50.904;6.136;2022-08-03T02:16:49;21.60;99.90
12568;DHT22;6349;50.904;6.136;2022-08-03T02:18:51;21.60;99.90
12568;DHT22;6349;50.904;6.136;2022-08-03T02:20:53;21.60;99.90
12568;DHT22;6349;50.904;6.136;2022-08-03T02:22:55;21.60;99.90
12568;DHT22;6349;50.904;6.136;2022-08-03T02:24:56;21.50;99.90
12568;DHT22;6349;50.904;6.136;2022-08-03T02:26:58;21.50;99.90
12568;DHT22;6349;50.904;6.136;2022-08-03T02:29:02;21.40;99.90
12568;DHT22;6349;50.904;6.136;2022-08-03T02:31:12;21.40;99.90
12568;DHT22;6349;50.904;6.136;2022-08-03T02:33:18;21.40;99.90
12568;DHT22;6349;50.904;6.136;2022-08-03T02:35:22;21.40;99.90
12568;DHT22;6349;50.904;6.136;2022-08-03T02:37:26;21.40;99.90
12568;DHT22;6349;50.904;6.136;2022-08-03T02:39:30;21.40;99.90
12568;DHT22;6349;50.904;6.136;2022-08-03T02:41:37;21.40;99.90
12568;DHT22;6349;50.904;6.136;2022-08-03T02:43:39;21.40;99.90
12568;DHT22;6349;50.904;6.136;2022-08-03T02:45:45;21.40;99.90
12568;DHT22;6349;50.904;6.136;2022-08-03T02:47:48;21.50;99.90
12568;DHT22;6349;50.904;6.136;2022-08-03T02:49:50;21.60;99.90
12568;DHT22;6349;50.904;6.136;2022-08-03T02:51:53;21.60;99.90
12568;DHT22;6349;50.904;6.136;2022-08-03T02:53:55;21.60;99.90
12568;DHT22;6349;50.904;6.136;2022-08-03T02:55:57;21.60;99.90
12568;DHT22;6349;50.904;6.136;2022-08-03T02:57:59;21.60;99.90
12568;DHT22;6349;50.904;6.136;2022-08-03T03:00:00;21.50;99.90
12568;DHT22;6349;50.904;6.136;2022-08-03T03:02:02;21.40;99.90
12568;DHT22;6349;50.904;6.136;2022-08-03T03:04:03;21.40;99.90
12568;DHT22;6349;50.904;6.136;2022-08-03T03:06:05;21.30;99.90
12568;DHT22;6349;50.904;6.136;2022-08-03T03:08:07;21.40;99.90
12568;DHT22;6349;50.904;6.136;2022-08-03T03:10:09;21.40;99.90
12568;DHT22;6349;50.904;6.136;2022-08-03T03:12:11;21.40;99.90
12568;DHT22;6349;50.904;6.136;2022-08-03T03:14:13;21.30;99.90
12568;DHT22;6349;50.904;6.136;2022-08-03T03:16:15;21.30;99.90
12568;DHT22;6349;50.904;6.136;2022-08-03T03:18:16;21.30;99.90
12568;DHT22;6349;50.904;6.136;2022-08-03T03:20:17;21.30;99.90
12568;DHT22;6349;50.904;6.136;2022-08-03T03:22:18;21.40;99.90
12568;DHT22;6349;50.904;6.136;2022-08-03T03:24:19;21.30;99.90
12568;DHT22;6349;50.904;6.136;2022-08-03T03:26:20;21.30;99.90
12568;DHT22;6349;50.904;6.136;2022-08-03T03:28:22;21.20;99.90
12568;DHT22;6349;50.904;6.136;2022-08-03T03:30:23;21.20;99.90
12568;DHT22;6349;50.904;6.136;2022-08-03T03:32:28;21.20;99.90
12568;DHT22;6349;50.904;6.136;2022-08-03T03:34:29;21.10;99.90
12568;DHT22;6349;50.904;6.136;2022-08-03T03:36:30;21.10;99.90
12568;DHT22;6349;50.904;6.136;2022-08-03T03:38:31;21.10;99.90
12568;DHT22;6349;50.904;6.136;2022-08-03T03:40:34;21.00;99.90
12568;DHT22;6349;50.904;6.136;2022-08-03T03:42:35;21.00;99.90
12568;DHT22;6349;50.904;6.136;2022-08-03T03:44:37;20.90;99.90
12568;DHT22;6349;50.904;6.136;2022-08-03T03:46:38;20.90;99.90
12568;DHT22;6349;50.904;6.136;2022-08-03T03:48:39;20.90;99.90
12568;DHT22;6349;50.904;6.136;2022-08-03T03:50:40;20.90;99.90
12568;DHT22;6349;50.904;6.136;2022-08-03T03:52:41;20.90;99.90
12568;DHT22;6349;50.904;6.136;2022-08-03T03:54:43;20.90;99.90
12568;DHT22;6349;50.904;6.136;2022-08-03T03:56:44;20.90;99.90
12568;DHT22;6349;50.904;6.136;2022-08-03T03:58:44;20.80;99.90
12568;DHT22;6349;50.904;6.136;2022-08-03T04:00:45;20.80;99.90
12568;DHT22;6349;50.904;6.136;2022-08-03T04:02:46;20.80;99.90
12568;DHT22;6349;50.904;6.136;2022-08-03T04:04:46;20.70;99.90
12568;DHT22;6349;50.904;6.136;2022-08-03T04:07:05;20.70;99.90
12568;DHT22;6349;50.904;6.136;2022-08-03T04:09:24;20.60;99.90
12568;DHT22;6349;50.904;6.136;2022-08-03T04:11:54;20.60;99.90
12568;DHT22;6349;50.904;6.136;2022-08-03T04:14:02;20.50;99.90
12568;DHT22;6349;50.904;6.136;2022-08-03T04:16:05;20.50;99.90
12568;DHT22;6349;50.904;6.136;2022-08-03T04:18:12;20.50;99.90
12568;DHT22;6349;50.904;6.136;2022-08-03T04:20:13;20.40;99.90
12568;DHT22;6349;50.904;6.136;2022-08-03T04:22:18;20.40;99.90
12568;DHT22;6349;50.904;6.136;2022-08-03T04:24:19;20.40;99.90
12568;DHT22;6349;50.904;6.136;2022-08-03T04:26:23;20.30;99.90
12568;DHT22;6349;50.904;6.136;2022-08-03T04:28:26;20.30;99.90
12568;DHT22;6349;50.904;6.136;2022-08-03T04:30:29;20.40;99.90
12568;DHT22;6349;50.904;6.136;2022-08-03T04:32:33;20.40;99.90
12568;DHT22;6349;50.904;6.136;2022-08-03T04:34:35;20.30;99.90
12568;DHT22;6349;50.904;6.136;2022-08-03T04:36:39;20.30;99.90
12568;DHT22;6349;50.904;6.136;2022-08-03T04:38:54;20.40;99.90
12568;DHT22;6349;50.904;6.136;2022-08-03T04:40:55;20.50;99.90
12568;DHT22;6349;50.904;6.136;2022-08-03T04:42:57;20.50;99.90
12568;DHT22;6349;50.904;6.136;2022-08-03T04:44:59;20.70;99.90
12568;DHT22;6349;50.904;6.136;2022-08-03T04:47:01;20.70;99.90
12568;DHT22;6349;50.904;6.136;2022-08-03T04:49:02;20.70;99.90
12568;DHT22;6349;50.904;6.136;2022-08-03T04:51:03;20.70;99.90
12568;DHT22;6349;50.904;6.136;2022-08-03T04:53:07;20.70;99.90
12568;DHT22;6349;50.904;6.136;2022-08-03T04:55:08;20.80;99.90
12568;DHT22;6349;50.904;6.136;2022-08-03T04:57:09;20.80;99.90
12568;DHT22;6349;50.904;6.136;2022-08-03T04:59:11;20.90;99.90
12568;DHT22;6349;50.904;6.136;2022-08-03T05:01:12;20.90;99.90
12568;DHT22;6349;50.904;6.136;2022-08-03T05:03:12;20.90;99.90
12568;DHT22;6349;50.904;6.136;2022-08-03T05:05:13;20.90;99.90
12568;DHT22;6349;50.904;6.136;2022-08-03T05:07:16;20.90;99.90
12568;DHT22;6349;50.904;6.136;2022-08-03T05:09:17;21.00;99.90
12568;DHT22;6349;50.904;6.136;2022-08-03T05:11:17;21.00;99.90
12568;DHT22;6349;50.904;6.136;2022-08-03T05:13:18;21.00;99.90
12568;DHT22;6349;50.904;6.136;2022-08-03T05:15:19;20.90;99.90
12568;DHT22;6349;50.904;6.136;2022-08-03T05:17:20;21.00;99.90
12568;DHT22;6349;50.904;6.136;2022-08-03T05:19:20;21.00;99.90
12568;DHT22;6349;50.904;6.136;2022-08-03T05:21:21;21.00;99.90
12568;DHT22;6349;50.904;6.136;2022-08-03T05:23:22;21.10;99.90
12568;DHT22;6349;50.904;6.136;2022-08-03T05:25:22;21.10;99.90
12568;DHT22;6349;50.904;6.136;2022-08-03T05:27:23;21.10;99.90
12568;DHT22;6349;50.904;6.136;2022-08-03T05:29:24;21.10;99.90
12568;DHT22;6349;50.904;6.136;2022-08-03T05:31:24;21.10;99.90
12568;DHT22;6349;50.904;6.136;2022-08-03T05:33:25;21.10;99.90
12568;DHT22;6349;50.904;6.136;2022-08-03T05:35:25;21.20;99.90
12568;DHT22;6349;50.904;6.136;2022-08-03T05:37:28;21.20;99.90
12568;DHT22;6349;50.904;6.136;2022-08-03T05:39:28;21.20;99.90
12568;DHT22;6349;50.904;6.136;2022-08-03T05:41:29;21.10;99.90
12568;DHT22;6349;50.904;6.136;2022-08-03T05:43:29;21.20;99.90
12568;DHT22;6349;50.904;6.136;2022-08-03T05:45:31;21.20;99.90
12568;DHT22;6349;50.904;6.136;2022-08-03T05:47:31;21.30;99.90
12568;DHT22;6349;50.904;6.136;2022-08-03T05:49:32;21.30;99.90
12568;DHT22;6349;50.904;6.136;2022-08-03T05:51:33;21.30;99.90
12568;DHT22;6349;50.904;6.136;2022-08-03T05:53:34;21.30;99.90
12568;DHT22;6349;50.904;6.136;2022-08-03T05:55:34;21.40;99.90
12568;DHT22;6349;50.904;6.136;2022-08-03T05:57:36;21.40;99.90
12568;DHT22;6349;50.904;6.136;2022-08-03T05:59:37;21.40;99.90
12568;DHT22;6349;50.904;6.136;2022-08-03T06:01:38;21.50;99.90
12568;DHT22;6349;50.904;6.136;2022-08-03T06:03:41;21.50;99.90
12568;DHT22;6349;50.904;6.136;2022-08-03T06:05:42;21.50;99.90
12568;DHT22;6349;50.904;6.136;2022-08-03T06:07:42;21.60;99.90
12568;DHT22;6349;50.904;6.136;2022-08-03T06:09:43;21.60;99.90
12568;DHT22;6349;50.904;6.136;2022-08-03T06:11:44;21.70;99.90
12568;DHT22;6349;50.904;6.136;2022-08-03T06:13:44;21.80;99.90
12568;DHT22;6349;50.904;6.136;2022-08-03T06:15:45;21.90;99.90
12568;DHT22;6349;50.904;6.136;2022-08-03T06:17:47;21.90;99.90
12568;DHT22;6349;50.904;6.136;2022-08-03T06:19:51;22.00;99.90
12568;DHT22;6349;50.904;6.136;2022-08-03T06:21:52;22.00;99.90
12568;DHT22;6349;50.904;6.136;2022-08-03T06:23:52;22.10;99.90
12568;DHT22;6349;50.904;6.136;2022-08-03T06:25:53;22.10;99.90
12568;DHT22;6349;50.904;6.136;2022-08-03T06:27:53;22.20;99.90
12568;DHT22;6349;50.904;6.136;2022-08-03T06:29:54;22.20;99.90
12568;DHT22;6349;50.904;6.136;2022-08-03T06:31:55;22.30;99.90
12568;DHT22;6349;50.904;6.136;2022-08-03T06:33:56;22.40;99.90
12568;DHT22;6349;50.904;6.136;2022-08-03T06:35:56;22.40;99.90
12568;DHT22;6349;50.904;6.136;2022-08-03T06:37:57;22.40;99.90
12568;DHT22;6349;50.904;6.136;2022-08-03T06:39:57;22.50;99.90
12568;DHT22;6349;50.904;6.136;2022-08-03T06:41:58;22.60;99.90
12568;DHT22;6349;50.904;6.136;2022-08-03T06:43:59;22.60;99.90
12568;DHT22;6349;50.904;6.136;2022-08-03T06:45:59;22.60;99.90
12568;DHT22;6349;50.904;6.136;2022-08-03T06:48:04;22.70;99.90
12568;DHT22;6349;50.904;6.136;2022-08-03T06:50:06;22.80;99.90
12568;DHT22;6349;50.904;6.136;2022-08-03T06:52:08;22.80;99.90
12568;DHT22;6349;50.904;6.136;2022-08-03T06:54:09;22.90;99.90
12568;DHT22;6349;50.904;6.136;2022-08-03T06:56:10;22.90;99.90
12568;DHT22;6349;50.904;6.136;2022-08-03T06:58:10;22.90;99.90
12568;DHT22;6349;50.904;6.136;2022-08-03T07:00:11;23.00;99.90
12568;DHT22;6349;50.904;6.136;2022-08-03T07:02:12;23.00;99.90
12568;DHT22;6349;50.904;6.136;2022-08-03T07:04:13;23.10;99.90
12568;DHT22;6349;50.904;6.136;2022-08-03T07:06:13;23.10;99.90
12568;DHT22;6349;50.904;6.136;2022-08-03T07:08:14;23.20;99.90
12568;DHT22;6349;50.904;6.136;2022-08-03T07:10:15;23.30;99.90
12568;DHT22;6349;50.904;6.136;2022-08-03T07:12:15;23.30;99.90
12568;DHT22;6349;50.904;6.136;2022-08-03T07:14:16;23.40;99.90
12568;DHT22;6349;50.904;6.136;2022-08-03T07:16:16;23.40;99.90
12568;DHT22;6349;50.904;6.136;2022-08-03T07:18:17;23.50;99.90
12568;DHT22;6349;50.904;6.136;2022-08-03T07:20:18;23.60;99.90
12568;DHT22;6349;50.904;6.136;2022-08-03T07:22:18;23.60;99.90
12568;DHT22;6349;50.904;6.136;2022-08-03T07:24:19;23.80;99.90
12568;DHT22;6349;50.904;6.136;2022-08-03T07:26:19;23.80;99.90
12568;DHT22;6349;50.904;6.136;2022-08-03T07:28:20;23.90;99.90
12568;DHT22;6349;50.904;6.136;2022-08-03T07:30:21;24.00;99.90
12568;DHT22;6349;50.904;6.136;2022-08-03T07:32:22;24.00;99.90
12568;DHT22;6349;50.904;6.136;2022-08-03T07:34:23;24.10;99.90
12568;DHT22;6349;50.904;6.136;2022-08-03T07:36:23;24.10;99.90
12568;DHT22;6349;50.904;6.136;2022-08-03T07:38:24;24.20;99.90
12568;DHT22;6349;50.904;6.136;2022-08-03T07:40:25;24.30;99.90
12568;DHT22;6349;50.904;6.136;2022-08-03T07:42:26;24.30;99.90
12568;DHT22;6349;50.904;6.136;2022-08-03T07:44:27;24.40;99.90
12568;DHT22;6349;50.904;6.136;2022-08-03T07:46:28;24.40;99.90
12568;DHT22;6349;50.904;6.136;2022-08-03T07:48:28;24.50;99.90
12568;DHT22;6349;50.904;6.136;2022-08-03T07:50:29;24.50;99.90
12568;DHT22;6349;50.904;6.136;2022-08-03T07:52:30;24.60;99.90
12568;DHT22;6349;50.904;6.136;2022-08-03T07:54:48;24.70;99.90
12568;DHT22;6349;50.904;6.136;2022-08-03T07:56:49;24.70;99.90
12568;DHT22;6349;50.904;6.136;2022-08-03T07:58:51;24.80;99.90
12568;DHT22;6349;50.904;6.136;2022-08-03T08:00:51;24.90;99.90
12568;DHT22;6349;50.904;6.136;2022-08-03T08:02:52;24.90;99.90
12568;DHT22;6349;50.904;6.136;2022-08-03T08:04:53;25.00;99.90
12568;DHT22;6349;50.904;6.136;2022-08-03T08:06:54;24.90;99.90
12568;DHT22;6349;50.904;6.136;2022-08-03T08:08:54;25.00;99.90
12568;DHT22;6349;50.904;6.136;2022-08-03T08:10:58;25.00;99.90
12568;DHT22;6349;50.904;6.136;2022-08-03T08:12:59;25.00;99.90
12568;DHT22;6349;50.904;6.136;2022-08-03T08:15:01;25.10;99.90
12568;DHT22;6349;50.904;6.136;2022-08-03T08:17:02;25.10;99.90
12568;DHT22;6349;50.904;6.136;2022-08-03T08:19:03;25.10;99.90
12568;DHT22;6349;50.904;6.136;2022-08-03T08:21:03;25.10;99.90
12568;DHT22;6349;50.904;6.136;2022-08-03T08:23:06;25.10;99.90
12568;DHT22;6349;50.904;6.136;2022-08-03T08:25:07;25.20;99.90
12568;DHT22;6349;50.904;6.136;2022-08-03T08:27:08;25.30;99.90
12568;DHT22;6349;50.904;6.136;2022-08-03T08:29:11;25.40;99.90
12568;DHT22;6349;50.904;6.136;2022-08-03T08:31:11;25.40;99.90
12568;DHT22;6349;50.904;6.136;2022-08-03T08:33:12;25.50;99.90
12568;DHT22;6349;50.904;6.136;2022-08-03T08:35:13;25.50;99.90
12568;DHT22;6349;50.904;6.136;2022-08-03T08:37:13;25.60;99.90
12568;DHT22;6349;50.904;6.136;2022-08-03T08:39:14;25.70;99.90
12568;DHT22;6349;50.904;6.136;2022-08-03T08:41:15;25.70;99.90
12568;DHT22;6349;50.904;6.136;2022-08-03T08:43:16;25.80;99.90
12568;DHT22;6349;50.904;6.136;2022-08-03T08:45:16;25.90;99.90
12568;DHT22;6349;50.904;6.136;2022-08-03T08:47:28;25.90;99.90
12568;DHT22;6349;50.904;6.136;2022-08-03T08:49:31;25.90;99.90
12568;DHT22;6349;50.904;6.136;2022-08-03T08:51:35;26.00;99.90
12568;DHT22;6349;50.904;6.136;2022-08-03T08:53:40;26.10;99.90
12568;DHT22;6349;50.904;6.136;2022-08-03T08:55:45;26.10;99.90
12568;DHT22;6349;50.904;6.136;2022-08-03T08:57:51;26.10;99.90
12568;DHT22;6349;50.904;6.136;2022-08-03T08:59:55;26.10;99.90
12568;DHT22;6349;50.904;6.136;2022-08-03T09:01:56;26.20;99.90
12568;DHT22;6349;50.904;6.136;2022-08-03T09:03:57;26.30;99.90
12568;DHT22;6349;50.904;6.136;2022-08-03T09:05:59;26.40;99.90
12568;DHT22;6349;50.904;6.136;2022-08-03T09:08:00;26.50;99.90
12568;DHT22;6349;50.904;6.136;2022-08-03T09:10:01;26.50;99.90
12568;DHT22;6349;50.904;6.136;2022-08-03T09:12:01;26.60;99.90
12568;DHT22;6349;50.904;6.136;2022-08-03T09:14:02;26.60;99.90
12568;DHT22;6349;50.904;6.136;2022-08-03T09:16:11;26.70;99.90
12568;DHT22;6349;50.904;6.136;2022-08-03T09:18:12;26.70;99.90
12568;DHT22;6349;50.904;6.136;2022-08-03T09:20:14;26.70;99.90
12568;DHT22;6349;50.904;6.136;2022-08-03T09:22:17;26.70;99.90
12568;DHT22;6349;50.904;6.136;2022-08-03T09:24:20;26.90;99.90
12568;DHT22;6349;50.904;6.136;2022-08-03T09:26:23;26.90;99.90
12568;DHT22;6349;50.904;6.136;2022-08-03T09:28:32;27.00;99.90
12568;DHT22;6349;50.904;6.136;2022-08-03T09:30:34;27.00;99.90
12568;DHT22;6349;50.904;6.136;2022-08-03T09:32:36;27.20;99.90
12568;DHT22;6349;50.904;6.136;2022-08-03T09:34:36;27.20;99.90
12568;DHT22;6349;50.904;6.136;2022-08-03T09:36:43;27.20;99.90
12568;DHT22;6349;50.904;6.136;2022-08-03T09:39:21;27.20;99.90
12568;DHT22;6349;50.904;6.136;2022-08-03T09:41:20;27.20;99.90
12568;DHT22;6349;50.904;6.136;2022-08-03T09:43:21;27.20;99.90
12568;DHT22;6349;50.904;6.136;2022-08-03T09:45:26;27.30;99.90
12568;DHT22;6349;50.904;6.136;2022-08-03T09:47:32;27.30;99.90
12568;DHT22;6349;50.904;6.136;2022-08-03T09:49:33;27.30;99.90
12568;DHT22;6349;50.904;6.136;2022-08-03T09:51:33;27.40;99.90
12568;DHT22;6349;50.904;6.136;2022-08-03T09:53:46;27.40;99.90
12568;DHT22;6349;50.904;6.136;2022-08-03T09:56:01;27.50;99.90
12568;DHT22;6349;50.904;6.136;2022-08-03T09:58:05;27.50;99.90
12568;DHT22;6349;50.904;6.136;2022-08-03T10:00:10;27.60;99.90
12568;DHT22;6349;50.904;6.136;2022-08-03T10:02:25;27.60;99.90
12568;DHT22;6349;50.904;6.136;2022-08-03T10:04:26;27.60;99.90
12568;DHT22;6349;50.904;6.136;2022-08-03T10:06:27;27.60;99.90
12568;DHT22;6349;50.904;6.136;2022-08-03T10:08:28;27.60;99.90
12568;DHT22;6349;50.904;6.136;2022-08-03T10:10:44;27.70;99.90
12568;DHT22;6349;50.904;6.136;2022-08-03T10:12:45;27.70;99.90
12568;DHT22;6349;50.904;6.136;2022-08-03T10:14:48;27.90;99.90
12568;DHT22;6349;50.904;6.136;2022-08-03T10:16:49;27.90;99.90
12568;DHT22;6349;50.904;6.136;2022-08-03T10:18:49;27.90;99.90
12568;DHT22;6349;50.904;6.136;2022-08-03T10:20:55;27.90;99.90
12568;DHT22;6349;50.904;6.136;2022-08-03T10:22:56;27.90;99.90
12568;DHT22;6349;50.904;6.136;2022-08-03T10:25:07;28.00;99.90
12568;DHT22;6349;50.904;6.136;2022-08-03T10:27:08;28.10;99.90
12568;DHT22;6349;50.904;6.136;2022-08-03T10:29:20;28.20;99.90
12568;DHT22;6349;50.904;6.136;2022-08-03T10:31:21;28.10;99.90
12568;DHT22;6349;50.904;6.136;2022-08-03T10:33:31;28.20;99.90
12568;DHT22;6349;50.904;6.136;2022-08-03T10:35:35;28.20;99.90
12568;DHT22;6349;50.904;6.136;2022-08-03T10:37:41;28.30;99.90
12568;DHT22;6349;50.904;6.136;2022-08-03T10:39:43;28.30;99.90
12568;DHT22;6349;50.904;6.136;2022-08-03T10:41:53;28.30;99.90
12568;DHT22;6349;50.904;6.136;2022-08-03T10:45:58;28.50;99.90
12568;DHT22;6349;50.904;6.136;2022-08-03T10:48:00;28.50;99.90
12568;DHT22;6349;50.904;6.136;2022-08-03T10:50:02;28.60;99.90
12568;DHT22;6349;50.904;6.136;2022-08-03T10:52:04;28.60;99.90
12568;DHT22;6349;50.904;6.136;2022-08-03T10:54:04;28.60;99.90
12568;DHT22;6349;50.904;6.136;2022-08-03T10:56:05;28.60;99.90
12568;DHT22;6349;50.904;6.136;2022-08-03T11:00:48;28.70;99.90
12568;DHT22;6349;50.904;6.136;2022-08-03T11:05:26;28.90;99.90
12568;DHT22;6349;50.904;6.136;2022-08-03T11:07:27;28.90;99.90
12568;DHT22;6349;50.904;6.136;2022-08-03T11:09:43;29.00;99.90
12568;DHT22;6349;50.904;6.136;2022-08-03T11:11:47;29.00;99.90
12568;DHT22;6349;50.904;6.136;2022-08-03T11:14:00;29.00;99.90
12568;DHT22;6349;50.904;6.136;2022-08-03T11:16:19;29.10;99.90
12568;DHT22;6349;50.904;6.136;2022-08-03T11:18:20;29.20;99.90
12568;DHT22;6349;50.904;6.136;2022-08-03T11:22:50;29.20;99.90
12568;DHT22;6349;50.904;6.136;2022-08-03T11:24:56;29.30;99.90
12568;DHT22;6349;50.904;6.136;2022-08-03T11:29:30;29.30;99.90
12568;DHT22;6349;50.904;6.136;2022-08-03T11:33:31;29.30;99.90
12568;DHT22;6349;50.904;6.136;2022-08-03T11:35:33;29.40;99.90
12568;DHT22;6349;50.904;6.136;2022-08-03T11:37:36;29.40;99.90
12568;DHT22;6349;50.904;6.136;2022-08-03T11:39:56;29.40;99.90
12568;DHT22;6349;50.904;6.136;2022-08-03T11:41:56;29.40;99.90
12568;DHT22;6349;50.904;6.136;2022-08-03T11:43:57;29.50;99.90
12568;DHT22;6349;50.904;6.136;2022-08-03T11:48:11;29.60;99.90
12568;DHT22;6349;50.904;6.136;2022-08-03T11:50:13;29.70;99.90
12568;DHT22;6349;50.904;6.136;2022-08-03T11:52:15;29.70;99.90
12568;DHT22;6349;50.904;6.136;2022-08-03T11:54:18;29.80;99.90
12568;DHT22;6349;50.904;6.136;2022-08-03T11:56:19;29.90;99.90
12568;DHT22;6349;50.904;6.136;2022-08-03T11:58:21;30.00;99.90
12568;DHT22;6349;50.904;6.136;2022-08-03T12:00:29;30.00;99.90
12568;DHT22;6349;50.904;6.136;2022-08-03T12:02:30;30.00;99.90
12568;DHT22;6349;50.904;6.136;2022-08-03T12:04:31;30.00;99.90
12568;DHT22;6349;50.904;6.136;2022-08-03T12:06:31;30.10;99.90
12568;DHT22;6349;50.904;6.136;2022-08-03T12:08:55;30.20;99.90
12568;DHT22;6349;50.904;6.136;2022-08-03T12:10:58;30.30;99.90
12568;DHT22;6349;50.904;6.136;2022-08-03T12:13:00;30.50;99.90
12568;DHT22;6349;50.904;6.136;2022-08-03T12:15:02;30.40;99.90
12568;DHT22;6349;50.904;6.136;2022-08-03T12:17:02;30.50;99.90
12568;DHT22;6349;50.904;6.136;2022-08-03T12:19:05;30.50;99.90
12568;DHT22;6349;50.904;6.136;2022-08-03T12:21:10;30.60;99.90
12568;DHT22;6349;50.904;6.136;2022-08-03T12:23:11;30.50;99.90
12568;DHT22;6349;50.904;6.136;2022-08-03T12:27:24;30.60;99.90
12568;DHT22;6349;50.904;6.136;2022-08-03T12:29:26;30.50;99.90
12568;DHT22;6349;50.904;6.136;2022-08-03T12:31:26;30.60;99.90
12568;DHT22;6349;50.904;6.136;2022-08-03T12:33:27;30.70;99.90
12568;DHT22;6349;50.904;6.136;2022-08-03T12:35:28;30.70;99.90
12568;DHT22;6349;50.904;6.136;2022-08-03T12:37:29;30.80;99.90
12568;DHT22;6349;50.904;6.136;2022-08-03T12:39:29;30.80;99.90
12568;DHT22;6349;50.904;6.136;2022-08-03T12:41:32;30.80;99.90
12568;DHT22;6349;50.904;6.136;2022-08-03T12:43:34;31.00;99.90
12568;DHT22;6349;50.904;6.136;2022-08-03T12:45:35;31.00;99.90
12568;DHT22;6349;50.904;6.136;2022-08-03T12:48:08;30.80;99.90
12568;DHT22;6349;50.904;6.136;2022-08-03T12:50:32;30.80;99.90
12568;DHT22;6349;50.904;6.136;2022-08-03T12:52:42;30.90;99.90
12568;DHT22;6349;50.904;6.136;2022-08-03T12:54:57;31.00;99.90
12568;DHT22;6349;50.904;6.136;2022-08-03T12:57:13;31.00;99.90
12568;DHT22;6349;50.904;6.136;2022-08-03T12:59:24;31.10;99.90
12568;DHT22;6349;50.904;6.136;2022-08-03T13:01:26;31.10;99.90
12568;DHT22;6349;50.904;6.136;2022-08-03T13:03:39;31.10;99.90
12568;DHT22;6349;50.904;6.136;2022-08-03T13:05:44;31.00;99.90
12568;DHT22;6349;50.904;6.136;2022-08-03T13:07:45;31.10;99.90
12568;DHT22;6349;50.904;6.136;2022-08-03T13:09:54;31.20;99.90
12568;DHT22;6349;50.904;6.136;2022-08-03T13:12:09;31.20;99.90
12568;DHT22;6349;50.904;6.136;2022-08-03T13:14:10;31.10;99.90
12568;DHT22;6349;50.904;6.136;2022-08-03T13:16:11;31.30;99.90
12568;DHT22;6349;50.904;6.136;2022-08-03T13:18:11;31.40;99.90
12568;DHT22;6349;50.904;6.136;2022-08-03T13:20:12;31.50;99.90
12568;DHT22;6349;50.904;6.136;2022-08-03T13:22:24;31.50;99.90
12568;DHT22;6349;50.904;6.136;2022-08-03T13:24:25;31.60;99.90
12568;DHT22;6349;50.904;6.136;2022-08-03T13:26:25;31.60;99.90
12568;DHT22;6349;50.904;6.136;2022-08-03T13:28:26;31.60;99.90
12568;DHT22;6349;50.904;6.136;2022-08-03T13:30:26;31.60;99.90
12568;DHT22;6349;50.904;6.136;2022-08-03T13:32:27;31.60;99.90
12568;DHT22;6349;50.904;6.136;2022-08-03T13:34:27;31.60;99.90
12568;DHT22;6349;50.904;6.136;2022-08-03T13:36:28;31.80;99.90
12568;DHT22;6349;50.904;6.136;2022-08-03T13:38:28;31.80;99.90
12568;DHT22;6349;50.904;6.136;2022-08-03T13:40:29;32.00;99.90
12568;DHT22;6349;50.904;6.136;2022-08-03T13:42:33;32.00;99.90
12568;DHT22;6349;50.904;6.136;2022-08-03T13:44:34;32.00;99.90